sensor_id;sensor_type;location;lat;lon;timestamp;P1;durP1;ratioP1;P2;durP2;ratioP2
2035;SDS011;23642;42.658;23.350;2023-07-09T00:01:44;92.23;;;87.23;;
2035;SDS011;23642;42.658;23.350;2023-07-09T00:04:11;94.40;;;88.67;;
2035;SDS011;23642;42.658;23.350;2023-07-09T00:06:39;91.97;;;86.90;;
2035;SDS011;23642;42.658;23.350;2023-07-09T00:09:09;102.17;;;96.87;;
2035;SDS011;23642;42.658;23.350;2023-07-09T00:11:40;97.73;;;91.93;;
2035;SDS011;23642;42.658;23.350;2023-07-09T00:14:09;97.50;;;91.90;;
2035;SDS011;23642;42.658;23.350;2023-07-09T00:16:37;94.67;;;89.37;;
2035;SDS011;23642;42.658;23.350;2023-07-09T00:19:09;94.00;;;88.80;;
2035;SDS011;23642;42.658;23.350;2023-07-09T00:21:41;95.10;;;89.77;;
2035;SDS011;23642;42.658;23.350;2023-07-09T00:24:10;93.43;;;88.33;;
2035;SDS011;23642;42.658;23.350;2023-07-09T00:26:38;95.80;;;90.00;;
2035;SDS011;23642;42.658;23.350;2023-07-09T00:29:10;94.07;;;88.73;;
2035;SDS011;23642;42.658;23.350;2023-07-09T00:31:40;95.30;;;89.90;;
2035;SDS011;23642;42.658;23.350;2023-07-09T00:34:08;97.83;;;92.43;;
2035;SDS011;23642;42.658;23.350;2023-07-09T00:36:37;97.77;;;92.33;;
2035;SDS011;23642;42.658;23.350;2023-07-09T00:39:10;96.07;;;90.73;;
2035;SDS011;23642;42.658;23.350;2023-07-09T00:41:49;96.33;;;90.83;;
2035;SDS011;23642;42.658;23.350;2023-07-09T00:44:25;91.30;;;86.30;;
2035;SDS011;23642;42.658;23.350;2023-07-09T00:47:15;92.40;;;87.30;;
2035;SDS011;23642;42.658;23.350;2023-07-09T00:52:44;97.00;;;91.90;;
2035;SDS011;23642;42.658;23.350;2023-07-09T00:55:23;100.87;;;93.23;;
2035;SDS011;23642;42.658;23.350;2023-07-09T00:58:05;95.43;;;90.27;;
2035;SDS011;23642;42.658;23.350;2023-07-09T01:00:37;98.10;;;92.60;;
2035;SDS011;23642;42.658;23.350;2023-07-09T01:03:13;96.70;;;91.13;;
2035;SDS011;23642;42.658;23.350;2023-07-09T01:05:46;92.90;;;87.90;;
2035;SDS011;23642;42.658;23.350;2023-07-09T01:08:16;94.03;;;88.53;;
2035;SDS011;23642;42.658;23.350;2023-07-09T01:10:47;93.87;;;88.67;;
2035;SDS011;23642;42.658;23.350;2023-07-09T01:13:14;97.63;;;92.43;;
2035;SDS011;23642;42.658;23.350;2023-07-09T01:15:52;93.50;;;88.33;;
2035;SDS011;23642;42.658;23.350;2023-07-09T01:18:25;92.37;;;87.33;;
2035;SDS011;23642;42.658;23.350;2023-07-09T01:21:01;95.87;;;90.60;;
2035;SDS011;23642;42.658;23.350;2023-07-09T01:23:40;94.33;;;89.07;;
2035;SDS011;23642;42.658;23.350;2023-07-09T01:26:11;95.40;;;90.30;;
2035;SDS011;23642;42.658;23.350;2023-07-09T01:28:40;94.03;;;88.43;;
2035;SDS011;23642;42.658;23.350;2023-07-09T01:31:10;95.47;;;90.23;;
2035;SDS011;23642;42.658;23.350;2023-07-09T01:33:40;97.83;;;92.33;;
2035;SDS011;23642;42.658;23.350;2023-07-09T01:36:12;92.90;;;87.80;;
2035;SDS011;23642;42.658;23.350;2023-07-09T01:38:45;95.10;;;90.00;;
2035;SDS011;23642;42.658;23.350;2023-07-09T01:41:14;99.73;;;94.13;;
2035;SDS011;23642;42.658;23.350;2023-07-09T01:43:42;95.30;;;90.10;;
2035;SDS011;23642;42.658;23.350;2023-07-09T01:46:13;97.63;;;91.70;;
2035;SDS011;23642;42.658;23.350;2023-07-09T01:48:41;94.90;;;89.80;;
2035;SDS011;23642;42.658;23.350;2023-07-09T01:51:12;95.33;;;90.00;;
2035;SDS011;23642;42.658;23.350;2023-07-09T01:53:42;97.03;;;91.73;;
2035;SDS011;23642;42.658;23.350;2023-07-09T01:56:26;95.90;;;90.80;;
2035;SDS011;23642;42.658;23.350;2023-07-09T01:59:17;97.37;;;91.70;;
2035;SDS011;23642;42.658;23.350;2023-07-09T02:02:16;95.47;;;89.87;;
2035;SDS011;23642;42.658;23.350;2023-07-09T02:04:45;96.67;;;91.13;;
2035;SDS011;23642;42.658;23.350;2023-07-09T02:07:18;93.33;;;88.37;;
2035;SDS011;23642;42.658;23.350;2023-07-09T02:10:02;92.97;;;87.80;;
2035;SDS011;23642;42.658;23.350;2023-07-09T02:12:36;96.00;;;90.80;;
2035;SDS011;23642;42.658;23.350;2023-07-09T02:15:10;99.40;;;93.80;;
2035;SDS011;23642;42.658;23.350;2023-07-09T02:17:55;98.17;;;92.83;;
2035;SDS011;23642;42.658;23.350;2023-07-09T02:20:37;93.03;;;87.90;;
2035;SDS011;23642;42.658;23.350;2023-07-09T02:23:15;94.87;;;89.63;;
2035;SDS011;23642;42.658;23.350;2023-07-09T02:25:59;98.03;;;92.73;;
2035;SDS011;23642;42.658;23.350;2023-07-09T02:28:30;93.47;;;88.40;;
2035;SDS011;23642;42.658;23.350;2023-07-09T02:31:00;96.00;;;90.60;;
2035;SDS011;23642;42.658;23.350;2023-07-09T02:33:50;96.77;;;91.57;;
2035;SDS011;23642;42.658;23.350;2023-07-09T02:36:28;93.63;;;88.33;;
2035;SDS011;23642;42.658;23.350;2023-07-09T02:39:14;94.47;;;89.27;;
2035;SDS011;23642;42.658;23.350;2023-07-09T02:41:46;93.60;;;88.50;;
2035;SDS011;23642;42.658;23.350;2023-07-09T02:44:28;92.13;;;87.23;;
2035;SDS011;23642;42.658;23.350;2023-07-09T02:47:27;97.23;;;91.93;;
2035;SDS011;23642;42.658;23.350;2023-07-09T02:49:57;96.97;;;91.57;;
2035;SDS011;23642;42.658;23.350;2023-07-09T02:52:44;95.93;;;89.93;;
2035;SDS011;23642;42.658;23.350;2023-07-09T02:55:18;94.37;;;88.83;;
2035;SDS011;23642;42.658;23.350;2023-07-09T02:57:51;98.37;;;92.87;;
2035;SDS011;23642;42.658;23.350;2023-07-09T03:00:21;96.23;;;90.70;;
2035;SDS011;23642;42.658;23.350;2023-07-09T03:02:51;96.40;;;90.57;;
2035;SDS011;23642;42.658;23.350;2023-07-09T03:05:21;97.97;;;92.30;;
2035;SDS011;23642;42.658;23.350;2023-07-09T03:07:49;101.70;;;95.90;;
2035;SDS011;23642;42.658;23.350;2023-07-09T03:10:21;100.20;;;94.10;;
2035;SDS011;23642;42.658;23.350;2023-07-09T03:12:54;101.70;;;94.50;;
2035;SDS011;23642;42.658;23.350;2023-07-09T03:15:24;97.93;;;92.23;;
2035;SDS011;23642;42.658;23.350;2023-07-09T03:18:02;98.23;;;92.33;;
2035;SDS011;23642;42.658;23.350;2023-07-09T03:20:33;100.20;;;94.20;;
2035;SDS011;23642;42.658;23.350;2023-07-09T03:23:05;98.20;;;92.10;;
2035;SDS011;23642;42.658;23.350;2023-07-09T03:25:39;101.17;;;95.17;;
2035;SDS011;23642;42.658;23.350;2023-07-09T03:28:12;101.43;;;95.33;;
2035;SDS011;23642;42.658;23.350;2023-07-09T03:30:42;101.07;;;94.90;;
2035;SDS011;23642;42.658;23.350;2023-07-09T03:33:13;98.70;;;92.50;;
2035;SDS011;23642;42.658;23.350;2023-07-09T03:35:46;99.23;;;93.23;;
2035;SDS011;23642;42.658;23.350;2023-07-09T03:38:18;98.87;;;93.07;;
2035;SDS011;23642;42.658;23.350;2023-07-09T03:40:54;101.70;;;95.80;;
2035;SDS011;23642;42.658;23.350;2023-07-09T03:43:24;102.30;;;95.80;;
2035;SDS011;23642;42.658;23.350;2023-07-09T03:45:51;100.57;;;93.97;;
2035;SDS011;23642;42.658;23.350;2023-07-09T03:48:23;103.47;;;97.07;;
2035;SDS011;23642;42.658;23.350;2023-07-09T03:50:59;102.83;;;96.13;;
2035;SDS011;23642;42.658;23.350;2023-07-09T03:53:57;98.80;;;92.80;;
2035;SDS011;23642;42.658;23.350;2023-07-09T04:03:43;96.90;;;91.03;;
2035;SDS011;23642;42.658;23.350;2023-07-09T04:06:54;97.23;;;90.90;;
2035;SDS011;23642;42.658;23.350;2023-07-09T04:09:50;96.97;;;91.17;;
2035;SDS011;23642;42.658;23.350;2023-07-09T04:12:31;97.30;;;91.50;;
2035;SDS011;23642;42.658;23.350;2023-07-09T04:15:25;96.90;;;90.87;;
2035;SDS011;23642;42.658;23.350;2023-07-09T04:18:20;95.90;;;90.00;;
2035;SDS011;23642;42.658;23.350;2023-07-09T04:21:00;97.60;;;91.60;;
2035;SDS011;23642;42.658;23.350;2023-07-09T04:23:54;97.10;;;91.10;;
2035;SDS011;23642;42.658;23.350;2023-07-09T04:28:25;97.13;;;90.50;;
2035;SDS011;23642;42.658;23.350;2023-07-09T04:30:16;98.53;;;92.40;;
2035;SDS011;23642;42.658;23.350;2023-07-09T04:33:16;96.50;;;90.57;;
2035;SDS011;23642;42.658;23.350;2023-07-09T04:39:22;95.10;;;89.40;;
2035;SDS011;23642;42.658;23.350;2023-07-09T04:41:52;94.73;;;88.80;;
2035;SDS011;23642;42.658;23.350;2023-07-09T04:44:22;94.90;;;89.20;;
2035;SDS011;23642;42.658;23.350;2023-07-09T04:46:50;96.07;;;90.17;;
2035;SDS011;23642;42.658;23.350;2023-07-09T04:49:23;96.77;;;90.80;;
2035;SDS011;23642;42.658;23.350;2023-07-09T04:51:59;95.07;;;89.13;;
2035;SDS011;23642;42.658;23.350;2023-07-09T04:54:33;97.63;;;91.67;;
2035;SDS011;23642;42.658;23.350;2023-07-09T04:57:22;97.53;;;91.53;;
2035;SDS011;23642;42.658;23.350;2023-07-09T05:00:08;98.90;;;92.20;;
2035;SDS011;23642;42.658;23.350;2023-07-09T05:02:42;96.57;;;90.77;;
2035;SDS011;23642;42.658;23.350;2023-07-09T05:05:15;96.57;;;90.37;;
2035;SDS011;23642;42.658;23.350;2023-07-09T05:07:57;97.60;;;91.50;;
2035;SDS011;23642;42.658;23.350;2023-07-09T05:10:40;94.70;;;88.73;;
2035;SDS011;23642;42.658;23.350;2023-07-09T05:13:08;97.47;;;91.17;;
2035;SDS011;23642;42.658;23.350;2023-07-09T05:15:44;93.60;;;87.70;;
2035;SDS011;23642;42.658;23.350;2023-07-09T05:18:17;96.40;;;90.40;;
2035;SDS011;23642;42.658;23.350;2023-07-09T05:20:52;93.53;;;87.93;;
2035;SDS011;23642;42.658;23.350;2023-07-09T05:23:26;94.40;;;88.30;;
2035;SDS011;23642;42.658;23.350;2023-07-09T05:25:55;95.50;;;89.60;;
2035;SDS011;23642;42.658;23.350;2023-07-09T05:28:23;93.70;;;88.00;;
2035;SDS011;23642;42.658;23.350;2023-07-09T05:30:50;91.20;;;85.50;;
2035;SDS011;23642;42.658;23.350;2023-07-09T05:33:28;92.80;;;87.30;;
2035;SDS011;23642;42.658;23.350;2023-07-09T05:36:06;92.00;;;86.10;;
2035;SDS011;23642;42.658;23.350;2023-07-09T05:38:45;91.47;;;85.67;;
2035;SDS011;23642;42.658;23.350;2023-07-09T05:41:30;94.83;;;88.70;;
2035;SDS011;23642;42.658;23.350;2023-07-09T05:44:12;93.77;;;87.93;;
2035;SDS011;23642;42.658;23.350;2023-07-09T05:46:49;92.40;;;86.40;;
2035;SDS011;23642;42.658;23.350;2023-07-09T05:49:27;89.10;;;83.40;;
2035;SDS011;23642;42.658;23.350;2023-07-09T05:52:22;90.93;;;85.43;;
2035;SDS011;23642;42.658;23.350;2023-07-09T05:55:14;87.30;;;82.07;;
2035;SDS011;23642;42.658;23.350;2023-07-09T05:57:48;89.47;;;83.90;;
2035;SDS011;23642;42.658;23.350;2023-07-09T06:00:22;89.00;;;83.47;;
2035;SDS011;23642;42.658;23.350;2023-07-09T06:02:58;87.73;;;82.43;;
2035;SDS011;23642;42.658;23.350;2023-07-09T06:05:38;86.67;;;81.47;;
2035;SDS011;23642;42.658;23.350;2023-07-09T06:08:12;86.07;;;80.87;;
2035;SDS011;23642;42.658;23.350;2023-07-09T06:10:51;87.73;;;82.33;;
2035;SDS011;23642;42.658;23.350;2023-07-09T06:13:30;89.27;;;83.67;;
2035;SDS011;23642;42.658;23.350;2023-07-09T06:16:07;88.33;;;82.60;;
2035;SDS011;23642;42.658;23.350;2023-07-09T06:18:44;90.40;;;84.60;;
2035;SDS011;23642;42.658;23.350;2023-07-09T06:21:19;88.50;;;83.10;;
2035;SDS011;23642;42.658;23.350;2023-07-09T06:23:47;87.70;;;82.20;;
2035;SDS011;23642;42.658;23.350;2023-07-09T06:26:18;87.87;;;82.40;;
2035;SDS011;23642;42.658;23.350;2023-07-09T06:28:53;89.73;;;84.13;;
2035;SDS011;23642;42.658;23.350;2023-07-09T06:31:24;89.47;;;84.07;;
2035;SDS011;23642;42.658;23.350;2023-07-09T06:34:28;88.17;;;82.70;;
2035;SDS011;23642;42.658;23.350;2023-07-09T06:36:58;88.70;;;83.20;;
2035;SDS011;23642;42.658;23.350;2023-07-09T06:39:35;88.50;;;82.73;;
2035;SDS011;23642;42.658;23.350;2023-07-09T06:42:13;87.73;;;82.20;;
2035;SDS011;23642;42.658;23.350;2023-07-09T06:44:53;88.87;;;83.33;;
2035;SDS011;23642;42.658;23.350;2023-07-09T06:47:29;90.67;;;85.13;;
2035;SDS011;23642;42.658;23.350;2023-07-09T06:50:11;89.20;;;82.60;;
2035;SDS011;23642;42.658;23.350;2023-07-09T06:52:52;88.23;;;82.83;;
2035;SDS011;23642;42.658;23.350;2023-07-09T06:55:45;87.57;;;82.00;;
2035;SDS011;23642;42.658;23.350;2023-07-09T06:58:22;87.30;;;82.00;;
2035;SDS011;23642;42.658;23.350;2023-07-09T07:01:00;89.60;;;84.20;;
2035;SDS011;23642;42.658;23.350;2023-07-09T07:03:42;86.90;;;81.10;;
2035;SDS011;23642;42.658;23.350;2023-07-09T07:06:35;89.00;;;83.60;;
2035;SDS011;23642;42.658;23.350;2023-07-09T07:09:15;88.70;;;83.00;;
2035;SDS011;23642;42.658;23.350;2023-07-09T07:11:52;88.23;;;82.83;;
2035;SDS011;23642;42.658;23.350;2023-07-09T07:14:26;91.90;;;86.33;;
2035;SDS011;23642;42.658;23.350;2023-07-09T07:21:46;92.43;;;86.43;;
2035;SDS011;23642;42.658;23.350;2023-07-09T07:27:33;90.90;;;85.30;;
2035;SDS011;23642;42.658;23.350;2023-07-09T08:12:14;90.17;;;84.77;;
2035;SDS011;23642;42.658;23.350;2023-07-09T08:15:27;89.80;;;84.30;;
2035;SDS011;23642;42.658;23.350;2023-07-09T08:18:28;89.80;;;84.30;;
2035;SDS011;23642;42.658;23.350;2023-07-09T08:28:34;89.17;;;83.50;;
2035;SDS011;23642;42.658;23.350;2023-07-09T08:31:37;87.53;;;82.33;;
2035;SDS011;23642;42.658;23.350;2023-07-09T08:34:52;87.77;;;82.43;;
2035;SDS011;23642;42.658;23.350;2023-07-09T08:43:28;91.57;;;85.97;;
2035;SDS011;23642;42.658;23.350;2023-07-09T08:58:27;90.30;;;85.00;;
2035;SDS011;23642;42.658;23.350;2023-07-09T09:06:27;88.47;;;83.00;;
2035;SDS011;23642;42.658;23.350;2023-07-09T09:11:58;89.90;;;84.40;;
2035;SDS011;23642;42.658;23.350;2023-07-09T09:35:48;88.73;;;83.27;;
2035;SDS011;23642;42.658;23.350;2023-07-09T10:14:10;89.47;;;84.07;;
2035;SDS011;23642;42.658;23.350;2023-07-09T10:21:01;87.57;;;82.07;;
2035;SDS011;23642;42.658;23.350;2023-07-09T10:42:52;90.23;;;84.83;;
2035;SDS011;23642;42.658;23.350;2023-07-09T10:56:32;90.80;;;85.40;;
2035;SDS011;23642;42.658;23.350;2023-07-09T11:10:50;91.17;;;85.83;;
2035;SDS011;23642;42.658;23.350;2023-07-09T11:14:13;90.17;;;84.80;;
2035;SDS011;23642;42.658;23.350;2023-07-09T11:18:11;90.43;;;84.93;;
2035;SDS011;23642;42.658;23.350;2023-07-09T11:34:44;90.17;;;84.83;;
2035;SDS011;23642;42.658;23.350;2023-07-09T11:48:06;92.57;;;87.17;;
2035;SDS011;23642;42.658;23.350;2023-07-09T11:53:20;91.70;;;86.10;;
2035;SDS011;23642;42.658;23.350;2023-07-09T11:54:53;90.80;;;85.47;;
2035;SDS011;23642;42.658;23.350;2023-07-09T12:07:39;92.93;;;87.43;;
2035;SDS011;23642;42.658;23.350;2023-07-09T12:10:50;93.70;;;88.10;;
2035;SDS011;23642;42.658;23.350;2023-07-09T12:14:10;95.47;;;89.67;;
2035;SDS011;23642;42.658;23.350;2023-07-09T12:17:48;95.57;;;89.97;;
2035;SDS011;23642;42.658;23.350;2023-07-09T12:20:41;94.00;;;88.40;;
2035;SDS011;23642;42.658;23.350;2023-07-09T12:30:39;92.27;;;86.83;;
2035;SDS011;23642;42.658;23.350;2023-07-09T12:37:33;93.43;;;88.00;;
2035;SDS011;23642;42.658;23.350;2023-07-09T12:44:36;90.20;;;85.00;;
2035;SDS011;23642;42.658;23.350;2023-07-09T13:07:53;90.27;;;84.87;;
2035;SDS011;23642;42.658;23.350;2023-07-09T13:35:16;91.17;;;85.87;;
2035;SDS011;23642;42.658;23.350;2023-07-09T13:38:19;96.77;;;91.10;;
2035;SDS011;23642;42.658;23.350;2023-07-09T13:48:09;94.30;;;88.80;;
2035;SDS011;23642;42.658;23.350;2023-07-09T13:51:16;92.87;;;87.37;;
2035;SDS011;23642;42.658;23.350;2023-07-09T13:54:18;90.43;;;85.07;;
2035;SDS011;23642;42.658;23.350;2023-07-09T13:58:20;92.10;;;86.80;;
2035;SDS011;23642;42.658;23.350;2023-07-09T14:07:18;93.73;;;88.23;;
2035;SDS011;23642;42.658;23.350;2023-07-09T14:10:35;91.37;;;85.70;;
2035;SDS011;23642;42.658;23.350;2023-07-09T14:13:33;91.17;;;85.87;;
2035;SDS011;23642;42.658;23.350;2023-07-09T14:16:36;93.97;;;88.47;;
2035;SDS011;23642;42.658;23.350;2023-07-09T14:43:47;90.53;;;85.03;;
2035;SDS011;23642;42.658;23.350;2023-07-09T14:50:34;93.40;;;87.90;;
2035;SDS011;23642;42.658;23.350;2023-07-09T14:53:37;93.63;;;88.10;;
2035;SDS011;23642;42.658;23.350;2023-07-09T14:56:31;94.27;;;88.70;;
2035;SDS011;23642;42.658;23.350;2023-07-09T14:59:39;95.93;;;90.40;;
2035;SDS011;23642;42.658;23.350;2023-07-09T15:02:18;96.30;;;89.77;;
2035;SDS011;23642;42.658;23.350;2023-07-09T15:04:59;94.83;;;89.23;;
2035;SDS011;23642;42.658;23.350;2023-07-09T15:07:40;93.80;;;88.30;;
2035;SDS011;23642;42.658;23.350;2023-07-09T15:10:12;94.90;;;89.10;;
2035;SDS011;23642;42.658;23.350;2023-07-09T15:12:54;94.10;;;88.50;;
2035;SDS011;23642;42.658;23.350;2023-07-09T15:15:29;95.80;;;90.20;;
2035;SDS011;23642;42.658;23.350;2023-07-09T15:18:08;96.37;;;90.67;;
2035;SDS011;23642;42.658;23.350;2023-07-09T15:20:49;92.00;;;86.50;;
2035;SDS011;23642;42.658;23.350;2023-07-09T15:23:38;96.13;;;90.60;;
2035;SDS011;23642;42.658;23.350;2023-07-09T15:26:17;97.50;;;91.80;;
2035;SDS011;23642;42.658;23.350;2023-07-09T15:29:01;96.73;;;91.20;;
2035;SDS011;23642;42.658;23.350;2023-07-09T15:31:33;94.80;;;89.10;;
2035;SDS011;23642;42.658;23.350;2023-07-09T15:34:10;93.83;;;88.00;;
2035;SDS011;23642;42.658;23.350;2023-07-09T15:39:25;95.90;;;90.50;;
2035;SDS011;23642;42.658;23.350;2023-07-09T15:41:55;97.53;;;92.03;;
2035;SDS011;23642;42.658;23.350;2023-07-09T15:44:25;98.17;;;92.17;;
2035;SDS011;23642;42.658;23.350;2023-07-09T15:46:58;97.10;;;91.43;;
2035;SDS011;23642;42.658;23.350;2023-07-09T15:51:30;95.60;;;90.00;;
2035;SDS011;23642;42.658;23.350;2023-07-09T15:52:41;92.73;;;87.00;;
2035;SDS011;23642;42.658;23.350;2023-07-09T15:55:14;94.57;;;89.00;;
2035;SDS011;23642;42.658;23.350;2023-07-09T15:57:59;96.10;;;90.50;;
2035;SDS011;23642;42.658;23.350;2023-07-09T16:00:32;93.93;;;88.23;;
2035;SDS011;23642;42.658;23.350;2023-07-09T16:03:15;97.10;;;91.10;;
2035;SDS011;23642;42.658;23.350;2023-07-09T16:05:44;95.77;;;90.17;;
2035;SDS011;23642;42.658;23.350;2023-07-09T16:08:18;95.83;;;90.10;;
2035;SDS011;23642;42.658;23.350;2023-07-09T16:10:51;92.60;;;87.20;;
2035;SDS011;23642;42.658;23.350;2023-07-09T16:13:25;95.47;;;89.47;;
2035;SDS011;23642;42.658;23.350;2023-07-09T16:15:58;94.10;;;88.50;;
2035;SDS011;23642;42.658;23.350;2023-07-09T16:18:41;95.43;;;89.73;;
2035;SDS011;23642;42.658;23.350;2023-07-09T16:21:23;96.70;;;90.90;;
2035;SDS011;23642;42.658;23.350;2023-07-09T16:23:54;95.43;;;89.73;;
2035;SDS011;23642;42.658;23.350;2023-07-09T16:26:24;95.47;;;89.67;;
2035;SDS011;23642;42.658;23.350;2023-07-09T16:29:01;93.40;;;87.90;;
2035;SDS011;23642;42.658;23.350;2023-07-09T16:31:41;93.63;;;87.90;;
2035;SDS011;23642;42.658;23.350;2023-07-09T16:34:25;92.63;;;87.00;;
2035;SDS011;23642;42.658;23.350;2023-07-09T16:36:56;94.47;;;88.97;;
2035;SDS011;23642;42.658;23.350;2023-07-09T16:39:25;92.37;;;86.70;;
2035;SDS011;23642;42.658;23.350;2023-07-09T16:41:56;92.17;;;86.67;;
2035;SDS011;23642;42.658;23.350;2023-07-09T16:44:24;94.03;;;88.23;;
2035;SDS011;23642;42.658;23.350;2023-07-09T16:50:08;92.37;;;86.67;;
2035;SDS011;23642;42.658;23.350;2023-07-09T16:52:54;92.30;;;86.40;;
2035;SDS011;23642;42.658;23.350;2023-07-09T16:55:25;91.13;;;85.60;;
2035;SDS011;23642;42.658;23.350;2023-07-09T16:57:58;92.47;;;86.87;;
2035;SDS011;23642;42.658;23.350;2023-07-09T17:00:35;95.03;;;89.27;;
2035;SDS011;23642;42.658;23.350;2023-07-09T17:03:09;93.53;;;87.90;;
2035;SDS011;23642;42.658;23.350;2023-07-09T17:05:40;94.40;;;88.80;;
2035;SDS011;23642;42.658;23.350;2023-07-09T17:08:20;92.33;;;86.77;;
2035;SDS011;23642;42.658;23.350;2023-07-09T17:10:55;91.53;;;85.80;;
2035;SDS011;23642;42.658;23.350;2023-07-09T17:13:31;92.93;;;87.33;;
2035;SDS011;23642;42.658;23.350;2023-07-09T17:16:02;89.57;;;84.17;;
2035;SDS011;23642;42.658;23.350;2023-07-09T17:18:32;89.83;;;84.47;;
2035;SDS011;23642;42.658;23.350;2023-07-09T17:21:08;93.33;;;87.73;;
2035;SDS011;23642;42.658;23.350;2023-07-09T17:23:37;93.27;;;87.53;;
2035;SDS011;23642;42.658;23.350;2023-07-09T17:26:10;91.17;;;85.70;;
2035;SDS011;23642;42.658;23.350;2023-07-09T17:28:45;91.17;;;85.37;;
2035;SDS011;23642;42.658;23.350;2023-07-09T17:31:12;90.23;;;84.60;;
2035;SDS011;23642;42.658;23.350;2023-07-09T17:33:42;91.37;;;85.70;;
2035;SDS011;23642;42.658;23.350;2023-07-09T17:36:19;93.60;;;87.90;;
2035;SDS011;23642;42.658;23.350;2023-07-09T17:38:49;91.93;;;86.43;;
2035;SDS011;23642;42.658;23.350;2023-07-09T17:41:33;90.10;;;84.57;;
2035;SDS011;23642;42.658;23.350;2023-07-09T17:44:04;90.93;;;85.33;;
2035;SDS011;23642;42.658;23.350;2023-07-09T17:46:41;90.83;;;85.03;;
2035;SDS011;23642;42.658;23.350;2023-07-09T17:52:41;90.77;;;84.77;;
2035;SDS011;23642;42.658;23.350;2023-07-09T17:57:57;90.87;;;85.37;;
2035;SDS011;23642;42.658;23.350;2023-07-09T18:00:35;89.70;;;84.10;;
2035;SDS011;23642;42.658;23.350;2023-07-09T18:03:16;92.00;;;86.10;;
2035;SDS011;23642;42.658;23.350;2023-07-09T18:05:52;89.97;;;84.30;;
2035;SDS011;23642;42.658;23.350;2023-07-09T18:08:21;90.10;;;84.40;;
2035;SDS011;23642;42.658;23.350;2023-07-09T18:10:52;90.97;;;84.80;;
2035;SDS011;23642;42.658;23.350;2023-07-09T18:13:27;88.13;;;82.47;;
2035;SDS011;23642;42.658;23.350;2023-07-09T18:15:56;90.93;;;85.13;;
2035;SDS011;23642;42.658;23.350;2023-07-09T18:18:24;89.63;;;83.83;;
2035;SDS011;23642;42.658;23.350;2023-07-09T18:20:54;87.50;;;82.00;;
2035;SDS011;23642;42.658;23.350;2023-07-09T18:23:29;88.43;;;82.83;;
2035;SDS011;23642;42.658;23.350;2023-07-09T18:26:08;87.60;;;82.07;;
2035;SDS011;23642;42.658;23.350;2023-07-09T18:29:30;86.77;;;80.87;;
2035;SDS011;23642;42.658;23.350;2023-07-09T18:32:07;88.23;;;82.20;;
2035;SDS011;23642;42.658;23.350;2023-07-09T18:34:42;86.47;;;80.93;;
2035;SDS011;23642;42.658;23.350;2023-07-09T18:37:10;86.83;;;81.37;;
2035;SDS011;23642;42.658;23.350;2023-07-09T18:39:43;87.73;;;82.23;;
2035;SDS011;23642;42.658;23.350;2023-07-09T18:45:43;89.20;;;83.60;;
2035;SDS011;23642;42.658;23.350;2023-07-09T18:48:53;87.87;;;82.03;;
2035;SDS011;23642;42.658;23.350;2023-07-09T18:51:28;88.10;;;82.60;;
2035;SDS011;23642;42.658;23.350;2023-07-09T18:54:15;87.50;;;82.10;;
2035;SDS011;23642;42.658;23.350;2023-07-09T18:56:45;89.50;;;83.33;;
2035;SDS011;23642;42.658;23.350;2023-07-09T18:59:17;88.13;;;82.53;;
2035;SDS011;23642;42.658;23.350;2023-07-09T19:04:49;87.20;;;81.70;;
2035;SDS011;23642;42.658;23.350;2023-07-09T19:07:29;89.50;;;83.90;;
2035;SDS011;23642;42.658;23.350;2023-07-09T19:10:16;90.13;;;84.53;;
2035;SDS011;23642;42.658;23.350;2023-07-09T19:13:07;88.27;;;82.87;;
2035;SDS011;23642;42.658;23.350;2023-07-09T19:15:43;88.20;;;82.70;;
2035;SDS011;23642;42.658;23.350;2023-07-09T19:18:14;87.57;;;81.83;;
2035;SDS011;23642;42.658;23.350;2023-07-09T19:20:46;86.03;;;80.73;;
2035;SDS011;23642;42.658;23.350;2023-07-09T19:23:16;89.23;;;83.77;;
2035;SDS011;23642;42.658;23.350;2023-07-09T19:25:53;88.93;;;83.23;;
2035;SDS011;23642;42.658;23.350;2023-07-09T19:28:30;88.43;;;83.03;;
2035;SDS011;23642;42.658;23.350;2023-07-09T19:31:00;91.37;;;85.50;;
2035;SDS011;23642;42.658;23.350;2023-07-09T19:33:38;90.10;;;84.40;;
2035;SDS011;23642;42.658;23.350;2023-07-09T19:36:18;86.30;;;81.00;;
2035;SDS011;23642;42.658;23.350;2023-07-09T19:38:51;87.70;;;82.30;;
2035;SDS011;23642;42.658;23.350;2023-07-09T19:41:23;87.70;;;82.30;;
2035;SDS011;23642;42.658;23.350;2023-07-09T19:43:54;89.13;;;83.13;;
2035;SDS011;23642;42.658;23.350;2023-07-09T19:46:22;87.03;;;81.63;;
2035;SDS011;23642;42.658;23.350;2023-07-09T19:48:52;85.40;;;79.90;;
2035;SDS011;23642;42.658;23.350;2023-07-09T19:51:19;88.30;;;82.87;;
2035;SDS011;23642;42.658;23.350;2023-07-09T19:53:47;88.20;;;82.90;;
2035;SDS011;23642;42.658;23.350;2023-07-09T19:56:14;88.63;;;83.33;;
2035;SDS011;23642;42.658;23.350;2023-07-09T19:58:45;88.90;;;83.40;;
2035;SDS011;23642;42.658;23.350;2023-07-09T20:01:22;85.93;;;80.63;;
2035;SDS011;23642;42.658;23.350;2023-07-09T20:04:21;86.00;;;80.80;;
2035;SDS011;23642;42.658;23.350;2023-07-09T20:06:55;89.50;;;83.83;;
2035;SDS011;23642;42.658;23.350;2023-07-09T20:09:23;84.20;;;79.00;;
2035;SDS011;23642;42.658;23.350;2023-07-09T20:11:50;88.60;;;83.30;;
2035;SDS011;23642;42.658;23.350;2023-07-09T20:14:31;84.80;;;79.60;;
2035;SDS011;23642;42.658;23.350;2023-07-09T20:17:04;88.33;;;83.13;;
2035;SDS011;23642;42.658;23.350;2023-07-09T20:19:36;90.27;;;84.83;;
2035;SDS011;23642;42.658;23.350;2023-07-09T20:22:07;87.83;;;82.63;;
2035;SDS011;23642;42.658;23.350;2023-07-09T20:24:36;87.57;;;82.37;;
2035;SDS011;23642;42.658;23.350;2023-07-09T20:27:08;90.63;;;84.70;;
2035;SDS011;23642;42.658;23.350;2023-07-09T20:29:40;90.03;;;84.57;;
2035;SDS011;23642;42.658;23.350;2023-07-09T20:32:13;87.57;;;82.27;;
2035;SDS011;23642;42.658;23.350;2023-07-09T20:34:43;87.80;;;82.50;;
2035;SDS011;23642;42.658;23.350;2023-07-09T20:37:25;88.30;;;82.93;;
2035;SDS011;23642;42.658;23.350;2023-07-09T20:39:52;88.53;;;83.33;;
2035;SDS011;23642;42.658;23.350;2023-07-09T20:42:27;86.70;;;81.20;;
2035;SDS011;23642;42.658;23.350;2023-07-09T20:44:54;89.70;;;84.40;;
2035;SDS011;23642;42.658;23.350;2023-07-09T20:47:23;88.73;;;83.43;;
2035;SDS011;23642;42.658;23.350;2023-07-09T20:49:50;88.80;;;83.53;;
2035;SDS011;23642;42.658;23.350;2023-07-09T20:52:28;89.07;;;83.60;;
2035;SDS011;23642;42.658;23.350;2023-07-09T20:54:55;89.37;;;84.20;;
2035;SDS011;23642;42.658;23.350;2023-07-09T20:57:22;88.03;;;82.73;;
2035;SDS011;23642;42.658;23.350;2023-07-09T20:59:50;89.43;;;84.33;;
2035;SDS011;23642;42.658;23.350;2023-07-09T21:02:21;87.10;;;82.00;;
2035;SDS011;23642;42.658;23.350;2023-07-09T21:04:54;88.20;;;82.73;;
2035;SDS011;23642;42.658;23.350;2023-07-09T21:07:21;88.77;;;83.50;;
2035;SDS011;23642;42.658;23.350;2023-07-09T21:09:49;88.07;;;82.90;;
2035;SDS011;23642;42.658;23.350;2023-07-09T21:12:21;88.37;;;83.27;;
2035;SDS011;23642;42.658;23.350;2023-07-09T21:14:53;87.90;;;82.80;;
2035;SDS011;23642;42.658;23.350;2023-07-09T21:17:20;90.83;;;85.63;;
2035;SDS011;23642;42.658;23.350;2023-07-09T21:19:53;89.57;;;84.43;;
2035;SDS011;23642;42.658;23.350;2023-07-09T21:22:24;88.17;;;82.93;;
2035;SDS011;23642;42.658;23.350;2023-07-09T21:24:55;93.30;;;88.00;;